createdAt,value
2018-08-17T00:00:35.216Z,17.04
2018-08-17T00:03:39.555Z,16.99
2018-08-17T00:06:43.890Z,16.97
2018-08-17T00:09:48.432Z,16.97
2018-08-17T00:12:52.903Z,16.93
2018-08-17T00:15:57.338Z,16.88
2018-08-17T00:19:02.276Z,16.88
2018-08-17T00:22:06.719Z,16.86
2018-08-17T00:25:11.468Z,16.85
2018-08-17T00:28:15.922Z,16.84
2018-08-17T00:31:20.421Z,16.80
2018-08-17T00:34:25.048Z,16.78
2018-08-17T00:37:29.465Z,16.73
2018-08-17T00:40:33.859Z,16.70
2018-08-17T00:43:38.207Z,16.65
2018-08-17T00:46:42.673Z,16.63
2018-08-17T00:49:47.254Z,16.60
2018-08-17T00:52:51.643Z,16.59
2018-08-17T00:55:55.966Z,16.57
2018-08-17T00:59:00.321Z,16.54
2018-08-17T01:02:04.847Z,16.52
2018-08-17T01:05:09.389Z,16.50
2018-08-17T01:08:13.728Z,16.48
2018-08-17T01:11:18.128Z,16.48
2018-08-17T01:14:22.762Z,16.48
2018-08-17T01:17:27.220Z,16.48
2018-08-17T01:20:31.632Z,16.45
2018-08-17T01:23:36.195Z,16.40
2018-08-17T01:26:40.685Z,16.39
2018-08-17T01:29:45.007Z,16.38
2018-08-17T01:32:49.363Z,16.36
2018-08-17T01:35:53.909Z,16.35
2018-08-17T01:38:58.243Z,16.29
2018-08-17T01:42:02.556Z,16.27
2018-08-17T01:45:06.959Z,16.22
2018-08-17T01:48:11.376Z,16.17
2018-08-17T01:51:15.805Z,16.13
2018-08-17T01:54:20.267Z,16.12
2018-08-17T01:57:24.687Z,16.13
2018-08-17T02:00:29.016Z,16.09
2018-08-17T02:03:33.546Z,16.07
2018-08-17T02:06:37.992Z,16.05
2018-08-17T02:09:42.333Z,15.99
2018-08-17T02:12:46.726Z,15.94
2018-08-17T02:15:51.076Z,15.92
2018-08-17T02:18:55.484Z,15.90
2018-08-17T02:21:59.967Z,15.91
2018-08-17T02:25:04.641Z,15.86
2018-08-17T02:28:09.153Z,15.82
2018-08-17T02:31:13.503Z,15.80
2018-08-17T02:34:17.820Z,15.76
2018-08-17T02:37:22.321Z,15.73
2018-08-17T02:40:26.888Z,15.72
2018-08-17T02:43:31.334Z,15.70
2018-08-17T02:46:35.784Z,15.67
2018-08-17T02:49:40.322Z,15.65
2018-08-17T02:52:44.709Z,15.63
2018-08-17T02:55:49.160Z,15.60
2018-08-17T02:58:53.527Z,15.58
2018-08-17T03:01:57.871Z,15.55
2018-08-17T03:05:02.331Z,15.51
2018-08-17T03:08:07.157Z,15.49
2018-08-17T03:11:11.543Z,15.46
2018-08-17T03:14:15.897Z,15.42
2018-08-17T03:17:20.281Z,15.42
2018-08-17T03:20:24.690Z,15.38
2018-08-17T03:23:29.209Z,15.38
2018-08-17T03:26:33.544Z,15.41
2018-08-17T03:29:38.079Z,15.44
2018-08-17T03:32:42.474Z,15.41
2018-08-17T03:35:46.902Z,15.41
2018-08-17T03:38:51.337Z,15.41
2018-08-17T03:41:55.696Z,15.42
2018-08-17T03:45:00.207Z,15.47
2018-08-17T03:48:04.550Z,15.53
2018-08-17T03:51:08.931Z,15.59
2018-08-17T03:54:13.323Z,15.63
2018-08-17T03:57:17.853Z,15.66
2018-08-17T04:00:22.377Z,15.68
2018-08-17T04:03:26.681Z,15.70
2018-08-17T04:06:31.123Z,15.75
2018-08-17T04:09:35.533Z,15.77
2018-08-17T04:12:39.947Z,15.79
2018-08-17T04:15:44.246Z,15.81
2018-08-17T04:18:58.912Z,15.86
2018-08-17T04:22:03.659Z,15.90
2018-08-17T04:25:08.087Z,15.94
2018-08-17T04:28:12.522Z,16.00
2018-08-17T04:31:17.111Z,16.07
2018-08-17T04:34:21.460Z,16.11
2018-08-17T04:37:25.905Z,16.13
2018-08-17T04:40:30.525Z,16.14
2018-08-17T04:43:34.940Z,16.19
2018-08-17T04:46:39.372Z,16.24
2018-08-17T04:49:43.785Z,16.29
2018-08-17T04:52:48.196Z,16.33
2018-08-17T04:55:52.623Z,16.36
2018-08-17T04:58:56.939Z,16.39
2018-08-17T05:02:01.369Z,16.43
2018-08-17T05:05:06.611Z,16.50
2018-08-17T05:08:10.928Z,16.55
2018-08-17T05:11:16.253Z,16.59
2018-08-17T05:14:20.621Z,16.63
2018-08-17T05:17:24.941Z,16.68
2018-08-17T05:20:29.518Z,16.74
2018-08-17T05:23:34.291Z,16.84
2018-08-17T05:26:39.034Z,16.90
2018-08-17T05:29:43.696Z,16.96
2018-08-17T05:32:48.109Z,17.04
2018-08-17T05:35:52.735Z,17.05
2018-08-17T05:38:57.229Z,17.11
2018-08-17T05:42:01.603Z,17.16
2018-08-17T05:45:07.685Z,17.24
2018-08-17T05:48:12.517Z,17.35
2018-08-17T05:51:17.392Z,17.44
2018-08-17T05:54:22.195Z,17.58
2018-08-17T05:57:26.958Z,17.70
2018-08-17T06:00:31.586Z,17.80
2018-08-17T06:03:36.068Z,17.85
2018-08-17T06:06:40.811Z,18.00
2018-08-17T06:09:45.439Z,18.12
2018-08-17T06:12:49.981Z,18.13
2018-08-17T06:15:54.605Z,18.16
2018-08-17T06:18:59.361Z,18.19
2018-08-17T06:22:04.064Z,18.25
2018-08-17T06:25:11.915Z,18.18
2018-08-17T06:28:16.426Z,18.23
2018-08-17T06:31:21.112Z,18.22
2018-08-17T06:34:25.672Z,18.29
2018-08-17T06:37:30.250Z,18.28
2018-08-17T06:40:34.979Z,18.29
2018-08-17T06:43:39.454Z,18.30
2018-08-17T06:46:44.094Z,18.23
2018-08-17T06:49:48.410Z,18.17
2018-08-17T06:52:52.781Z,18.14
2018-08-17T06:55:57.093Z,18.09
2018-08-17T06:59:01.452Z,18.07
2018-08-17T07:02:05.896Z,18.07
2018-08-17T07:05:10.227Z,18.09
2018-08-17T07:08:14.926Z,18.08
2018-08-17T07:11:19.469Z,18.10
2018-08-17T07:14:24.094Z,18.09
2018-08-17T07:17:28.426Z,18.11
2018-08-17T07:20:32.861Z,18.10
2018-08-17T07:23:37.269Z,18.09
2018-08-17T07:26:41.560Z,18.05
2018-08-17T07:29:45.972Z,18.01
2018-08-17T07:32:50.308Z,17.98
2018-08-17T07:35:54.821Z,17.96
2018-08-17T07:38:59.214Z,17.97
2018-08-17T07:42:03.605Z,17.91
2018-08-17T07:45:08.198Z,17.91
2018-08-17T07:48:12.667Z,17.85
2018-08-17T07:51:17.027Z,17.88
2018-08-17T07:54:21.496Z,17.89
2018-08-17T07:57:25.842Z,17.90
2018-08-17T08:00:30.187Z,17.94
2018-08-17T08:03:34.564Z,18.06
2018-08-17T08:06:38.874Z,18.19
2018-08-17T08:09:43.424Z,18.30
2018-08-17T08:12:47.870Z,18.39
2018-08-17T08:15:52.318Z,18.49
2018-08-17T08:18:56.671Z,18.54
2018-08-17T08:22:01.012Z,18.54
2018-08-17T08:25:05.572Z,18.44
2018-08-17T08:28:10.113Z,18.40
2018-08-17T08:31:14.565Z,18.41
2018-08-17T08:34:18.937Z,18.52
2018-08-17T08:37:23.370Z,18.49
2018-08-17T08:40:27.910Z,18.51
2018-08-17T08:43:32.201Z,18.56
2018-08-17T08:46:37.300Z,18.53
2018-08-17T08:49:41.636Z,18.42
2018-08-17T08:52:46.106Z,18.41
2018-08-17T08:55:50.696Z,18.46
2018-08-17T08:58:55.236Z,18.54
2018-08-17T09:01:59.538Z,18.56
2018-08-17T09:05:03.986Z,18.56
2018-08-17T09:08:08.503Z,18.63
2018-08-17T09:11:12.820Z,18.71
2018-08-17T09:14:17.243Z,18.89
2018-08-17T09:17:21.633Z,19.04
2018-08-17T09:20:26.066Z,19.14
2018-08-17T09:23:30.653Z,19.31
2018-08-17T09:26:35.091Z,19.41
2018-08-17T09:29:39.511Z,19.46
2018-08-17T09:32:44.037Z,19.45
2018-08-17T09:35:48.509Z,19.44
2018-08-17T09:38:53.023Z,19.49
2018-08-17T09:41:57.583Z,19.61
2018-08-17T09:45:01.885Z,19.76
2018-08-17T09:48:06.927Z,19.93
2018-08-17T09:51:11.339Z,19.85
2018-08-17T09:54:16.107Z,19.84
2018-08-17T09:57:20.663Z,19.87
2018-08-17T10:00:30.361Z,19.90
2018-08-17T10:03:40.008Z,19.95
2018-08-17T10:06:50.216Z,20.02
2018-08-17T10:09:55.607Z,20.05
2018-08-17T10:13:00.136Z,20.08
2018-08-17T10:16:04.569Z,20.09
2018-08-17T10:19:09.261Z,20.27
2018-08-17T10:22:13.695Z,20.43
2018-08-17T10:25:22.529Z,20.62
2018-08-17T10:28:27.246Z,20.81
2018-08-17T10:31:31.726Z,21.02
2018-08-17T10:34:36.121Z,21.21
2018-08-17T10:37:40.616Z,21.25
2018-08-17T10:40:45.142Z,21.47
2018-08-17T10:43:49.491Z,21.47
2018-08-17T10:46:53.967Z,21.47
2018-08-17T10:50:01.311Z,21.66
2018-08-17T10:53:06.012Z,21.86
2018-08-17T10:56:10.276Z,21.96
2018-08-17T10:59:14.579Z,21.95
2018-08-17T11:02:18.900Z,22.06
2018-08-17T11:05:23.313Z,22.12
2018-08-17T11:08:27.778Z,22.02
2018-08-17T11:11:32.169Z,21.78
2018-08-17T11:14:36.578Z,21.76
2018-08-17T11:17:41.984Z,21.54
2018-08-17T11:20:46.349Z,21.47
2018-08-17T11:23:50.681Z,21.65
2018-08-17T11:26:55.056Z,21.68
2018-08-17T11:29:59.375Z,21.85
2018-08-17T11:33:03.774Z,21.83
2018-08-17T11:36:08.144Z,22.00
2018-08-17T11:39:12.484Z,22.03
2018-08-17T11:42:16.818Z,22.05
2018-08-17T11:45:23.306Z,22.12
2018-08-17T11:48:32.830Z,22.09
2018-08-17T11:51:40.969Z,22.06
2018-08-17T11:54:45.637Z,22.10
2018-08-17T11:57:50.018Z,22.19
2018-08-17T12:00:54.291Z,22.25
2018-08-17T12:03:58.600Z,22.35
2018-08-17T12:07:02.930Z,22.32
2018-08-17T12:10:07.672Z,22.46
2018-08-17T12:13:18.065Z,22.58
2018-08-17T12:16:22.554Z,22.68
2018-08-17T12:19:27.026Z,22.68
2018-08-17T12:22:31.878Z,22.60
2018-08-17T12:25:44.020Z,22.46
2018-08-17T12:28:48.412Z,22.21
2018-08-17T12:31:52.777Z,21.84
2018-08-17T12:34:57.200Z,21.73
2018-08-17T12:38:06.755Z,21.76
2018-08-17T12:41:11.410Z,21.86
2018-08-17T12:44:18.489Z,21.97
2018-08-17T12:47:22.948Z,22.13
2018-08-17T12:50:27.370Z,22.31
2018-08-17T12:53:31.759Z,22.14
2018-08-17T12:56:36.207Z,22.12
2018-08-17T12:59:40.591Z,21.99
2018-08-17T13:02:45.031Z,22.04
2018-08-17T13:05:49.362Z,22.16
2018-08-17T13:08:53.808Z,22.39
2018-08-17T13:12:00.467Z,22.61
2018-08-17T13:15:04.749Z,22.56
2018-08-17T13:18:16.296Z,22.43
2018-08-17T13:21:20.577Z,22.73
2018-08-17T13:24:24.859Z,22.83
2018-08-17T13:27:29.210Z,22.97
2018-08-17T13:30:33.505Z,22.85
2018-08-17T13:33:37.841Z,22.49
2018-08-17T13:36:42.170Z,22.19
2018-08-17T13:39:46.537Z,22.35
2018-08-17T13:42:50.816Z,22.19
2018-08-17T13:45:55.121Z,22.07
2018-08-17T13:48:59.458Z,22.17
2018-08-17T13:52:03.741Z,22.49
2018-08-17T13:55:08.332Z,22.52
2018-08-17T13:58:12.713Z,22.64
2018-08-17T14:01:17.056Z,22.83
2018-08-17T14:04:21.359Z,22.91
2018-08-17T14:07:25.674Z,22.79
2018-08-17T14:10:30.013Z,22.77
2018-08-17T14:13:34.308Z,22.80
2018-08-17T14:16:38.618Z,22.48
2018-08-17T14:19:42.878Z,22.47
2018-08-17T14:22:47.186Z,22.56
2018-08-17T14:25:51.493Z,22.36
2018-08-17T14:28:55.858Z,22.20
2018-08-17T14:32:00.114Z,22.18
2018-08-17T14:35:04.419Z,22.57
2018-08-17T14:38:08.920Z,22.28
2018-08-17T14:41:13.327Z,22.04
2018-08-17T14:44:17.713Z,22.32
2018-08-17T14:47:22.070Z,22.56
2018-08-17T14:50:26.357Z,22.60
2018-08-17T14:53:30.782Z,22.66
2018-08-17T14:56:35.208Z,22.56
2018-08-17T14:59:39.593Z,22.76
2018-08-17T15:02:43.945Z,22.66
2018-08-17T15:05:48.593Z,22.81
2018-08-17T15:08:53.357Z,22.81
2018-08-17T15:11:57.655Z,22.67
2018-08-17T15:15:02.521Z,22.92
2018-08-17T15:18:07.071Z,23.31
2018-08-17T15:21:11.476Z,23.57
2018-08-17T15:24:15.803Z,23.61
2018-08-17T15:27:20.150Z,23.40
2018-08-17T15:30:25.302Z,23.81
2018-08-17T15:33:30.628Z,24.07
2018-08-17T15:36:35.709Z,24.44
2018-08-17T15:39:41.058Z,24.67
2018-08-17T15:42:46.350Z,24.76
2018-08-17T15:45:52.265Z,24.45
2018-08-17T15:48:57.289Z,24.45
2018-08-17T15:52:02.560Z,24.50
2018-08-17T15:55:06.918Z,24.62
2018-08-17T15:58:11.280Z,24.55
2018-08-17T16:01:15.676Z,24.70
2018-08-17T16:04:20.040Z,25.12
2018-08-17T16:07:24.371Z,24.99
2018-08-17T16:10:28.840Z,24.90
2018-08-17T16:13:33.007Z,24.78
2018-08-17T16:16:37.698Z,25.03
2018-08-17T16:19:42.083Z,24.83
2018-08-17T16:22:46.549Z,25.03
2018-08-17T16:25:50.914Z,24.95
2018-08-17T16:28:55.187Z,24.77
2018-08-17T16:31:59.626Z,24.54
2018-08-17T16:35:05.253Z,24.36
2018-08-17T16:38:09.742Z,24.30
2018-08-17T16:41:14.043Z,24.25
2018-08-17T16:44:18.453Z,24.71
2018-08-17T16:47:22.778Z,24.77
2018-08-17T16:50:27.070Z,24.82
2018-08-17T16:53:31.661Z,24.53
2018-08-17T16:56:36.285Z,24.27
2018-08-17T16:59:40.640Z,24.41
2018-08-17T17:02:44.980Z,24.65
2018-08-17T17:05:54.857Z,24.41
2018-08-17T17:09:02.406Z,24.40
2018-08-17T17:12:12.494Z,24.19
2018-08-17T17:15:21.072Z,24.12
2018-08-17T17:18:25.551Z,24.32
2018-08-17T17:21:29.928Z,23.98
2018-08-17T17:24:34.450Z,23.77
2018-08-17T17:27:39.063Z,23.18
2018-08-17T17:30:49.473Z,22.57
2018-08-17T17:33:54.604Z,22.02
2018-08-17T17:36:59.720Z,21.25
2018-08-17T17:40:04.528Z,20.96
2018-08-17T17:43:09.005Z,20.65
2018-08-17T17:46:13.395Z,20.41
2018-08-17T17:49:17.765Z,20.29
2018-08-17T17:52:22.435Z,20.16
2018-08-17T17:55:35.927Z,19.98
2018-08-17T17:58:40.332Z,19.83
2018-08-17T18:01:44.772Z,19.72
2018-08-17T18:04:49.171Z,19.62
2018-08-17T18:07:53.493Z,19.53
2018-08-17T18:10:57.842Z,19.47
2018-08-17T18:14:02.127Z,19.36
2018-08-17T18:17:06.545Z,19.26
2018-08-17T18:20:12.278Z,19.11
2018-08-17T18:23:16.640Z,19.05
2018-08-17T18:26:24.050Z,18.98
2018-08-17T18:29:28.333Z,18.93
2018-08-17T18:32:33.004Z,18.82
2018-08-17T18:35:37.399Z,18.77
2018-08-17T18:38:41.839Z,18.71
2018-08-17T18:41:46.222Z,18.68
2018-08-17T18:44:50.625Z,18.59
2018-08-17T18:47:55.085Z,18.58
2018-08-17T18:50:59.527Z,18.56
2018-08-17T18:54:03.927Z,18.46
2018-08-17T18:57:08.453Z,18.36
2018-08-17T19:00:14.350Z,18.31
2018-08-17T19:03:18.739Z,18.26
2018-08-17T19:06:23.147Z,18.21
2018-08-17T19:09:27.680Z,18.19
2018-08-17T19:12:32.090Z,18.11
2018-08-17T19:15:40.633Z,18.06
2018-08-17T19:18:45.768Z,18.04
2018-08-17T19:21:50.122Z,18.00
2018-08-17T19:24:54.585Z,17.94
2018-08-17T19:27:59.078Z,17.89
2018-08-17T19:31:03.557Z,17.83
2018-08-17T19:34:07.945Z,17.83
2018-08-17T19:37:12.352Z,17.77
2018-08-17T19:40:17.724Z,17.71
2018-08-17T19:43:22.115Z,17.70
2018-08-17T19:46:26.621Z,17.62
2018-08-17T19:49:31.152Z,17.58
2018-08-17T19:52:35.619Z,17.52
2018-08-17T19:55:40.084Z,17.43
2018-08-17T19:58:44.592Z,17.35
2018-08-17T20:01:48.960Z,17.30
2018-08-17T20:04:53.473Z,17.22
2018-08-17T20:07:58.021Z,17.16
2018-08-17T20:11:02.520Z,17.09
2018-08-17T20:14:06.914Z,17.04
2018-08-17T20:17:11.388Z,16.98
2018-08-17T20:20:15.809Z,16.92
2018-08-17T20:23:20.367Z,16.75
2018-08-17T20:26:25.915Z,16.56
2018-08-17T20:29:29.983Z,16.41
2018-08-17T20:32:34.398Z,16.28
2018-08-17T20:35:38.796Z,16.22
2018-08-17T20:38:43.136Z,16.14
2018-08-17T20:41:47.431Z,16.09
2018-08-17T20:44:51.790Z,16.08
2018-08-17T20:47:56.106Z,16.04
2018-08-17T20:51:05.445Z,15.99
2018-08-17T20:54:09.870Z,15.94
2018-08-17T20:57:14.375Z,15.94
2018-08-17T21:00:19.098Z,16.00
2018-08-17T21:03:23.528Z,15.96
2018-08-17T21:06:28.100Z,15.99
2018-08-17T21:09:32.565Z,15.92
2018-08-17T21:12:37.068Z,15.83
2018-08-17T21:15:41.704Z,15.69
2018-08-17T21:18:46.210Z,15.54
2018-08-17T21:21:50.510Z,15.43
2018-08-17T21:24:54.870Z,15.30
2018-08-17T21:27:59.193Z,15.17
2018-08-17T21:31:03.653Z,15.08
2018-08-17T21:34:07.958Z,14.99
2018-08-17T21:37:12.350Z,14.92
2018-08-17T21:40:21.149Z,14.81
2018-08-17T21:43:25.508Z,14.73
2018-08-17T21:46:29.829Z,14.71
2018-08-17T21:49:35.327Z,14.68
2018-08-17T21:52:39.701Z,14.62
2018-08-17T21:55:44.030Z,14.55
2018-08-17T21:58:48.361Z,14.52
2018-08-17T22:01:52.686Z,14.55
2018-08-17T22:04:57.107Z,14.64
2018-08-17T22:08:01.722Z,14.71
2018-08-17T22:11:06.190Z,14.77
2018-08-17T22:14:10.554Z,14.79
2018-08-17T22:17:36.315Z,14.83
2018-08-17T22:20:40.610Z,14.85
2018-08-17T22:23:44.932Z,14.81
2018-08-17T22:26:49.262Z,14.78
2018-08-17T22:29:54.865Z,14.77
2018-08-17T22:32:59.105Z,14.75
2018-08-17T22:36:03.914Z,14.71
2018-08-17T22:39:08.392Z,14.68
2018-08-17T22:42:13.053Z,14.61
2018-08-17T22:45:17.654Z,14.54
2018-08-17T22:48:22.282Z,14.54
2018-08-17T22:51:26.548Z,14.48
2018-08-17T22:54:30.884Z,14.45
2018-08-17T22:57:35.144Z,14.41
2018-08-17T23:00:39.536Z,14.39
2018-08-17T23:03:48.910Z,14.30
2018-08-17T23:06:53.262Z,14.23
2018-08-17T23:09:57.618Z,14.16
2018-08-17T23:13:01.937Z,14.10
2018-08-17T23:16:06.258Z,14.05
2018-08-17T23:19:10.564Z,14.05
2018-08-17T23:22:14.969Z,14.03
2018-08-17T23:25:19.364Z,14.00
2018-08-17T23:28:23.613Z,13.90
2018-08-17T23:31:28.206Z,13.81
2018-08-17T23:34:32.554Z,13.75
2018-08-17T23:37:37.031Z,13.70
2018-08-17T23:40:41.347Z,13.61
2018-08-17T23:43:45.774Z,13.60
2018-08-17T23:46:50.181Z,13.56
2018-08-17T23:49:54.481Z,13.51
2018-08-17T23:52:58.770Z,13.45
2018-08-17T23:56:03.128Z,13.42
2018-08-17T23:59:07.453Z,13.40
